sensor_id;sensor_type;location;lat;lon;timestamp;P1;durP1;ratioP1;P2;durP2;ratioP2
15363;SDS011;7781;49.690;6.472;2022-11-20T00:01:39;9.67;;;6.40;;
15363;SDS011;7781;49.690;6.472;2022-11-20T00:04:12;8.80;;;6.60;;
15363;SDS011;7781;49.690;6.472;2022-11-20T00:06:41;11.90;;;6.10;;
15363;SDS011;7781;49.690;6.472;2022-11-20T00:09:14;11.23;;;6.57;;
15363;SDS011;7781;49.690;6.472;2022-11-20T00:11:43;6.33;;;4.50;;
15363;SDS011;7781;49.690;6.472;2022-11-20T00:14:12;10.43;;;7.00;;
15363;SDS011;7781;49.690;6.472;2022-11-20T00:16:41;9.60;;;6.40;;
15363;SDS011;7781;49.690;6.472;2022-11-20T00:19:10;14.50;;;6.27;;
15363;SDS011;7781;49.690;6.472;2022-11-20T00:21:43;10.40;;;6.20;;
15363;SDS011;7781;49.690;6.472;2022-11-20T00:24:13;8.13;;;4.90;;
15363;SDS011;7781;49.690;6.472;2022-11-20T00:26:45;10.40;;;6.27;;
15363;SDS011;7781;49.690;6.472;2022-11-20T00:29:15;11.03;;;5.57;;
15363;SDS011;7781;49.690;6.472;2022-11-20T00:31:46;11.07;;;6.00;;
15363;SDS011;7781;49.690;6.472;2022-11-20T00:34:18;6.47;;;5.03;;
15363;SDS011;7781;49.690;6.472;2022-11-20T00:36:48;9.03;;;5.20;;
15363;SDS011;7781;49.690;6.472;2022-11-20T00:39:17;9.70;;;5.27;;
15363;SDS011;7781;49.690;6.472;2022-11-20T00:41:46;7.30;;;4.93;;
15363;SDS011;7781;49.690;6.472;2022-11-20T00:44:15;9.80;;;5.33;;
15363;SDS011;7781;49.690;6.472;2022-11-20T00:46:45;6.97;;;4.70;;
15363;SDS011;7781;49.690;6.472;2022-11-20T00:49:14;7.50;;;4.57;;
15363;SDS011;7781;49.690;6.472;2022-11-20T00:51:45;9.57;;;5.03;;
15363;SDS011;7781;49.690;6.472;2022-11-20T00:54:13;8.10;;;5.10;;
15363;SDS011;7781;49.690;6.472;2022-11-20T00:56:42;9.30;;;5.50;;
15363;SDS011;7781;49.690;6.472;2022-11-20T00:59:11;8.50;;;4.80;;
15363;SDS011;7781;49.690;6.472;2022-11-20T01:01:41;5.97;;;5.10;;
15363;SDS011;7781;49.690;6.472;2022-11-20T01:04:10;9.93;;;5.10;;
15363;SDS011;7781;49.690;6.472;2022-11-20T01:06:38;6.70;;;4.40;;
15363;SDS011;7781;49.690;6.472;2022-11-20T01:09:10;7.33;;;5.07;;
15363;SDS011;7781;49.690;6.472;2022-11-20T01:11:41;5.83;;;4.77;;
15363;SDS011;7781;49.690;6.472;2022-11-20T01:14:12;8.40;;;5.63;;
15363;SDS011;7781;49.690;6.472;2022-11-20T01:16:43;7.40;;;4.47;;
15363;SDS011;7781;49.690;6.472;2022-11-20T01:19:13;8.43;;;5.17;;
15363;SDS011;7781;49.690;6.472;2022-11-20T01:21:45;9.70;;;4.80;;
15363;SDS011;7781;49.690;6.472;2022-11-20T01:24:17;7.07;;;5.07;;
15363;SDS011;7781;49.690;6.472;2022-11-20T01:26:48;8.87;;;4.80;;
15363;SDS011;7781;49.690;6.472;2022-11-20T01:29:19;6.93;;;5.13;;
15363;SDS011;7781;49.690;6.472;2022-11-20T01:31:49;5.70;;;5.10;;
15363;SDS011;7781;49.690;6.472;2022-11-20T01:34:20;6.20;;;4.60;;
15363;SDS011;7781;49.690;6.472;2022-11-20T01:36:49;7.30;;;5.20;;
15363;SDS011;7781;49.690;6.472;2022-11-20T01:39:21;8.40;;;5.03;;
15363;SDS011;7781;49.690;6.472;2022-11-20T01:41:51;6.70;;;4.93;;
15363;SDS011;7781;49.690;6.472;2022-11-20T01:44:50;7.00;;;4.73;;
15363;SDS011;7781;49.690;6.472;2022-11-20T01:47:25;6.93;;;4.20;;
15363;SDS011;7781;49.690;6.472;2022-11-20T01:49:59;5.97;;;4.03;;
15363;SDS011;7781;49.690;6.472;2022-11-20T01:52:33;6.27;;;4.20;;
15363;SDS011;7781;49.690;6.472;2022-11-20T01:55:09;5.97;;;4.50;;
15363;SDS011;7781;49.690;6.472;2022-11-20T01:57:43;5.47;;;4.37;;
15363;SDS011;7781;49.690;6.472;2022-11-20T02:00:14;5.93;;;4.67;;
15363;SDS011;7781;49.690;6.472;2022-11-20T02:02:47;6.83;;;4.23;;
15363;SDS011;7781;49.690;6.472;2022-11-20T02:05:27;8.77;;;4.97;;
15363;SDS011;7781;49.690;6.472;2022-11-20T02:08:02;7.47;;;4.97;;
15363;SDS011;7781;49.690;6.472;2022-11-20T02:10:33;5.67;;;5.07;;
15363;SDS011;7781;49.690;6.472;2022-11-20T02:13:04;6.40;;;5.10;;
15363;SDS011;7781;49.690;6.472;2022-11-20T02:15:50;6.23;;;5.43;;
15363;SDS011;7781;49.690;6.472;2022-11-20T02:18:20;8.93;;;6.13;;
15363;SDS011;7781;49.690;6.472;2022-11-20T02:20:51;6.53;;;5.87;;
15363;SDS011;7781;49.690;6.472;2022-11-20T02:23:24;8.13;;;5.70;;
15363;SDS011;7781;49.690;6.472;2022-11-20T02:26:04;8.13;;;5.57;;
15363;SDS011;7781;49.690;6.472;2022-11-20T02:28:37;11.20;;;5.83;;
15363;SDS011;7781;49.690;6.472;2022-11-20T02:31:07;6.63;;;5.60;;
15363;SDS011;7781;49.690;6.472;2022-11-20T02:33:36;6.37;;;5.30;;
15363;SDS011;7781;49.690;6.472;2022-11-20T02:36:07;10.70;;;5.80;;
15363;SDS011;7781;49.690;6.472;2022-11-20T02:38:41;14.27;;;5.53;;
15363;SDS011;7781;49.690;6.472;2022-11-20T02:41:15;8.53;;;5.03;;
15363;SDS011;7781;49.690;6.472;2022-11-20T02:43:44;7.10;;;5.37;;
15363;SDS011;7781;49.690;6.472;2022-11-20T02:46:14;7.43;;;5.20;;
15363;SDS011;7781;49.690;6.472;2022-11-20T02:48:43;6.20;;;5.10;;
15363;SDS011;7781;49.690;6.472;2022-11-20T02:51:13;5.80;;;4.77;;
15363;SDS011;7781;49.690;6.472;2022-11-20T02:53:42;6.70;;;4.67;;
15363;SDS011;7781;49.690;6.472;2022-11-20T02:56:11;6.07;;;4.60;;
15363;SDS011;7781;49.690;6.472;2022-11-20T02:58:41;6.40;;;4.57;;
15363;SDS011;7781;49.690;6.472;2022-11-20T03:01:10;6.90;;;5.30;;
15363;SDS011;7781;49.690;6.472;2022-11-20T03:03:40;8.60;;;5.57;;
15363;SDS011;7781;49.690;6.472;2022-11-20T03:06:09;8.23;;;4.90;;
15363;SDS011;7781;49.690;6.472;2022-11-20T03:08:37;7.83;;;5.43;;
15363;SDS011;7781;49.690;6.472;2022-11-20T03:11:10;5.67;;;4.90;;
15363;SDS011;7781;49.690;6.472;2022-11-20T03:13:38;8.10;;;5.10;;
15363;SDS011;7781;49.690;6.472;2022-11-20T03:16:10;9.30;;;5.47;;
15363;SDS011;7781;49.690;6.472;2022-11-20T03:18:40;8.70;;;5.40;;
15363;SDS011;7781;49.690;6.472;2022-11-20T03:21:11;9.00;;;6.20;;
15363;SDS011;7781;49.690;6.472;2022-11-20T03:23:40;6.83;;;4.30;;
15363;SDS011;7781;49.690;6.472;2022-11-20T03:26:12;9.47;;;5.10;;
15363;SDS011;7781;49.690;6.472;2022-11-20T03:28:51;8.83;;;5.70;;
15363;SDS011;7781;49.690;6.472;2022-11-20T03:31:23;10.07;;;5.50;;
15363;SDS011;7781;49.690;6.472;2022-11-20T03:33:54;10.70;;;5.73;;
15363;SDS011;7781;49.690;6.472;2022-11-20T03:36:25;9.87;;;6.23;;
15363;SDS011;7781;49.690;6.472;2022-11-20T03:38:55;10.63;;;5.83;;
15363;SDS011;7781;49.690;6.472;2022-11-20T03:41:25;10.23;;;5.17;;
15363;SDS011;7781;49.690;6.472;2022-11-20T03:43:55;7.03;;;3.70;;
15363;SDS011;7781;49.690;6.472;2022-11-20T03:46:27;9.77;;;4.67;;
15363;SDS011;7781;49.690;6.472;2022-11-20T03:48:56;10.63;;;5.30;;
15363;SDS011;7781;49.690;6.472;2022-11-20T03:51:26;8.20;;;4.93;;
15363;SDS011;7781;49.690;6.472;2022-11-20T03:54:00;6.30;;;4.33;;
15363;SDS011;7781;49.690;6.472;2022-11-20T03:56:31;8.93;;;5.00;;
15363;SDS011;7781;49.690;6.472;2022-11-20T03:59:02;7.00;;;4.77;;
15363;SDS011;7781;49.690;6.472;2022-11-20T04:01:34;7.93;;;4.93;;
15363;SDS011;7781;49.690;6.472;2022-11-20T04:04:04;6.00;;;4.50;;
15363;SDS011;7781;49.690;6.472;2022-11-20T04:06:34;7.80;;;4.77;;
15363;SDS011;7781;49.690;6.472;2022-11-20T04:09:06;4.93;;;3.80;;
15363;SDS011;7781;49.690;6.472;2022-11-20T04:11:35;5.70;;;3.60;;
15363;SDS011;7781;49.690;6.472;2022-11-20T04:14:06;6.67;;;4.20;;
15363;SDS011;7781;49.690;6.472;2022-11-20T04:16:43;6.00;;;4.17;;
15363;SDS011;7781;49.690;6.472;2022-11-20T04:19:12;4.90;;;3.90;;
15363;SDS011;7781;49.690;6.472;2022-11-20T04:21:43;4.33;;;3.40;;
15363;SDS011;7781;49.690;6.472;2022-11-20T04:24:12;5.10;;;4.23;;
15363;SDS011;7781;49.690;6.472;2022-11-20T04:26:41;6.50;;;3.80;;
15363;SDS011;7781;49.690;6.472;2022-11-20T04:29:11;3.87;;;3.47;;
15363;SDS011;7781;49.690;6.472;2022-11-20T04:31:43;4.77;;;3.53;;
15363;SDS011;7781;49.690;6.472;2022-11-20T04:34:12;4.77;;;3.47;;
15363;SDS011;7781;49.690;6.472;2022-11-20T04:36:41;4.10;;;3.40;;
15363;SDS011;7781;49.690;6.472;2022-11-20T04:39:11;3.70;;;3.30;;
15363;SDS011;7781;49.690;6.472;2022-11-20T04:41:42;4.87;;;3.27;;
15363;SDS011;7781;49.690;6.472;2022-11-20T04:44:11;3.63;;;3.10;;
15363;SDS011;7781;49.690;6.472;2022-11-20T04:46:40;5.73;;;3.70;;
15363;SDS011;7781;49.690;6.472;2022-11-20T04:49:11;4.60;;;3.40;;
15363;SDS011;7781;49.690;6.472;2022-11-20T04:51:40;3.50;;;3.20;;
15363;SDS011;7781;49.690;6.472;2022-11-20T04:54:10;4.53;;;3.97;;
15363;SDS011;7781;49.690;6.472;2022-11-20T04:56:40;3.60;;;3.23;;
15363;SDS011;7781;49.690;6.472;2022-11-20T04:59:09;6.83;;;3.60;;
15363;SDS011;7781;49.690;6.472;2022-11-20T05:01:39;5.37;;;4.47;;
15363;SDS011;7781;49.690;6.472;2022-11-20T05:04:10;6.07;;;4.30;;
15363;SDS011;7781;49.690;6.472;2022-11-20T05:06:39;5.30;;;3.53;;
15363;SDS011;7781;49.690;6.472;2022-11-20T05:09:09;5.17;;;4.37;;
15363;SDS011;7781;49.690;6.472;2022-11-20T05:11:38;4.97;;;4.07;;
15363;SDS011;7781;49.690;6.472;2022-11-20T05:14:07;5.27;;;3.97;;
15363;SDS011;7781;49.690;6.472;2022-11-20T05:16:36;6.23;;;5.07;;
15363;SDS011;7781;49.690;6.472;2022-11-20T05:19:06;6.23;;;4.47;;
15363;SDS011;7781;49.690;6.472;2022-11-20T05:21:38;6.03;;;4.57;;
15363;SDS011;7781;49.690;6.472;2022-11-20T05:24:09;6.47;;;4.97;;
15363;SDS011;7781;49.690;6.472;2022-11-20T05:26:40;7.57;;;5.30;;
15363;SDS011;7781;49.690;6.472;2022-11-20T05:29:09;7.90;;;4.77;;
15363;SDS011;7781;49.690;6.472;2022-11-20T05:31:40;6.90;;;4.80;;
15363;SDS011;7781;49.690;6.472;2022-11-20T05:34:11;6.10;;;5.07;;
15363;SDS011;7781;49.690;6.472;2022-11-20T05:36:39;6.60;;;4.77;;
15363;SDS011;7781;49.690;6.472;2022-11-20T05:39:09;6.87;;;4.97;;
15363;SDS011;7781;49.690;6.472;2022-11-20T05:41:38;8.03;;;5.40;;
15363;SDS011;7781;49.690;6.472;2022-11-20T05:44:07;5.90;;;4.43;;
15363;SDS011;7781;49.690;6.472;2022-11-20T05:46:38;7.07;;;5.30;;
15363;SDS011;7781;49.690;6.472;2022-11-20T05:49:06;6.30;;;4.70;;
15363;SDS011;7781;49.690;6.472;2022-11-20T05:51:36;7.80;;;5.10;;
15363;SDS011;7781;49.690;6.472;2022-11-20T05:54:05;7.90;;;5.37;;
15363;SDS011;7781;49.690;6.472;2022-11-20T05:56:33;6.90;;;5.07;;
15363;SDS011;7781;49.690;6.472;2022-11-20T05:59:04;7.47;;;5.00;;
15363;SDS011;7781;49.690;6.472;2022-11-20T06:01:37;9.57;;;6.23;;
15363;SDS011;7781;49.690;6.472;2022-11-20T06:04:06;9.33;;;5.70;;
15363;SDS011;7781;49.690;6.472;2022-11-20T06:06:36;10.43;;;6.20;;
15363;SDS011;7781;49.690;6.472;2022-11-20T06:09:06;7.10;;;5.57;;
15363;SDS011;7781;49.690;6.472;2022-11-20T06:11:35;9.23;;;6.10;;
15363;SDS011;7781;49.690;6.472;2022-11-20T06:14:04;8.43;;;6.20;;
15363;SDS011;7781;49.690;6.472;2022-11-20T06:16:34;9.93;;;6.00;;
15363;SDS011;7781;49.690;6.472;2022-11-20T06:19:03;11.90;;;5.87;;
15363;SDS011;7781;49.690;6.472;2022-11-20T06:21:32;12.47;;;8.33;;
15363;SDS011;7781;49.690;6.472;2022-11-20T06:24:05;13.67;;;8.63;;
15363;SDS011;7781;49.690;6.472;2022-11-20T06:26:36;6.53;;;5.53;;
15363;SDS011;7781;49.690;6.472;2022-11-20T06:29:05;8.30;;;5.67;;
15363;SDS011;7781;49.690;6.472;2022-11-20T06:31:34;7.83;;;5.00;;
15363;SDS011;7781;49.690;6.472;2022-11-20T06:34:04;9.00;;;5.57;;
15363;SDS011;7781;49.690;6.472;2022-11-20T06:36:34;7.47;;;6.00;;
15363;SDS011;7781;49.690;6.472;2022-11-20T06:39:04;9.70;;;5.90;;
15363;SDS011;7781;49.690;6.472;2022-11-20T06:41:33;9.80;;;6.37;;
15363;SDS011;7781;49.690;6.472;2022-11-20T06:44:03;13.17;;;8.60;;
15363;SDS011;7781;49.690;6.472;2022-11-20T06:46:33;14.43;;;6.67;;
15363;SDS011;7781;49.690;6.472;2022-11-20T06:49:01;16.57;;;8.50;;
15363;SDS011;7781;49.690;6.472;2022-11-20T06:51:30;10.23;;;6.90;;
15363;SDS011;7781;49.690;6.472;2022-11-20T06:53:59;13.23;;;8.43;;
15363;SDS011;7781;49.690;6.472;2022-11-20T06:56:30;14.50;;;9.27;;
15363;SDS011;7781;49.690;6.472;2022-11-20T06:58:58;18.47;;;9.30;;
15363;SDS011;7781;49.690;6.472;2022-11-20T07:01:33;13.07;;;8.40;;
15363;SDS011;7781;49.690;6.472;2022-11-20T07:04:03;9.83;;;6.43;;
15363;SDS011;7781;49.690;6.472;2022-11-20T07:06:33;11.40;;;7.77;;
15363;SDS011;7781;49.690;6.472;2022-11-20T07:09:03;11.60;;;6.90;;
15363;SDS011;7781;49.690;6.472;2022-11-20T07:11:48;10.47;;;6.83;;
15363;SDS011;7781;49.690;6.472;2022-11-20T07:14:17;14.40;;;8.10;;
15363;SDS011;7781;49.690;6.472;2022-11-20T07:16:46;11.80;;;7.67;;
15363;SDS011;7781;49.690;6.472;2022-11-20T07:19:15;14.20;;;7.60;;
15363;SDS011;7781;49.690;6.472;2022-11-20T07:21:44;15.03;;;7.33;;
15363;SDS011;7781;49.690;6.472;2022-11-20T07:24:14;13.87;;;8.67;;
15363;SDS011;7781;49.690;6.472;2022-11-20T07:26:45;13.50;;;8.77;;
15363;SDS011;7781;49.690;6.472;2022-11-20T07:29:17;16.83;;;9.70;;
15363;SDS011;7781;49.690;6.472;2022-11-20T07:31:46;11.90;;;7.77;;
15363;SDS011;7781;49.690;6.472;2022-11-20T07:34:15;11.80;;;7.87;;
15363;SDS011;7781;49.690;6.472;2022-11-20T07:36:44;11.17;;;7.23;;
15363;SDS011;7781;49.690;6.472;2022-11-20T07:39:13;12.37;;;7.40;;
15363;SDS011;7781;49.690;6.472;2022-11-20T07:41:42;8.03;;;6.13;;
15363;SDS011;7781;49.690;6.472;2022-11-20T07:44:12;8.50;;;6.30;;
15363;SDS011;7781;49.690;6.472;2022-11-20T07:46:43;10.27;;;6.90;;
15363;SDS011;7781;49.690;6.472;2022-11-20T07:49:11;10.90;;;7.00;;
15363;SDS011;7781;49.690;6.472;2022-11-20T07:51:41;12.67;;;7.13;;
15363;SDS011;7781;49.690;6.472;2022-11-20T07:54:18;8.80;;;6.63;;
15363;SDS011;7781;49.690;6.472;2022-11-20T07:56:47;11.60;;;6.77;;
15363;SDS011;7781;49.690;6.472;2022-11-20T07:59:16;14.17;;;8.73;;
15363;SDS011;7781;49.690;6.472;2022-11-20T08:01:47;11.00;;;5.87;;
15363;SDS011;7781;49.690;6.472;2022-11-20T08:04:16;7.90;;;6.13;;
15363;SDS011;7781;49.690;6.472;2022-11-20T08:06:45;15.10;;;8.10;;
15363;SDS011;7781;49.690;6.472;2022-11-20T08:09:14;17.50;;;9.77;;
15363;SDS011;7781;49.690;6.472;2022-11-20T08:11:44;14.80;;;8.77;;
15363;SDS011;7781;49.690;6.472;2022-11-20T08:14:31;11.23;;;7.20;;
15363;SDS011;7781;49.690;6.472;2022-11-20T08:17:02;15.67;;;7.87;;
15363;SDS011;7781;49.690;6.472;2022-11-20T08:19:31;17.13;;;11.50;;
15363;SDS011;7781;49.690;6.472;2022-11-20T08:22:00;10.40;;;6.40;;
15363;SDS011;7781;49.690;6.472;2022-11-20T08:24:29;11.50;;;7.10;;
15363;SDS011;7781;49.690;6.472;2022-11-20T08:26:58;11.40;;;7.53;;
15363;SDS011;7781;49.690;6.472;2022-11-20T08:29:27;17.27;;;10.40;;
15363;SDS011;7781;49.690;6.472;2022-11-20T08:31:56;23.00;;;12.80;;
15363;SDS011;7781;49.690;6.472;2022-11-20T08:34:26;11.63;;;5.60;;
15363;SDS011;7781;49.690;6.472;2022-11-20T08:36:56;9.20;;;4.80;;
15363;SDS011;7781;49.690;6.472;2022-11-20T08:39:25;6.30;;;5.10;;
15363;SDS011;7781;49.690;6.472;2022-11-20T08:41:55;3.93;;;2.73;;
15363;SDS011;7781;49.690;6.472;2022-11-20T08:44:24;10.03;;;4.70;;
15363;SDS011;7781;49.690;6.472;2022-11-20T08:46:53;8.07;;;4.00;;
15363;SDS011;7781;49.690;6.472;2022-11-20T08:49:23;7.13;;;3.90;;
15363;SDS011;7781;49.690;6.472;2022-11-20T08:51:53;6.60;;;3.77;;
15363;SDS011;7781;49.690;6.472;2022-11-20T08:54:21;5.73;;;3.30;;
15363;SDS011;7781;49.690;6.472;2022-11-20T08:56:50;4.67;;;3.00;;
15363;SDS011;7781;49.690;6.472;2022-11-20T08:59:20;8.30;;;3.33;;
15363;SDS011;7781;49.690;6.472;2022-11-20T09:02:08;7.70;;;4.37;;
15363;SDS011;7781;49.690;6.472;2022-11-20T09:04:39;6.27;;;4.27;;
15363;SDS011;7781;49.690;6.472;2022-11-20T09:07:10;6.83;;;4.10;;
15363;SDS011;7781;49.690;6.472;2022-11-20T09:09:40;6.27;;;4.20;;
15363;SDS011;7781;49.690;6.472;2022-11-20T09:12:09;6.40;;;3.80;;
15363;SDS011;7781;49.690;6.472;2022-11-20T09:14:38;9.40;;;4.40;;
15363;SDS011;7781;49.690;6.472;2022-11-20T09:17:10;7.17;;;4.00;;
15363;SDS011;7781;49.690;6.472;2022-11-20T09:19:41;7.43;;;3.50;;
15363;SDS011;7781;49.690;6.472;2022-11-20T09:22:11;6.10;;;3.90;;
15363;SDS011;7781;49.690;6.472;2022-11-20T09:24:41;8.00;;;3.57;;
15363;SDS011;7781;49.690;6.472;2022-11-20T09:27:10;7.80;;;3.80;;
15363;SDS011;7781;49.690;6.472;2022-11-20T09:29:39;5.13;;;3.30;;
15363;SDS011;7781;49.690;6.472;2022-11-20T09:32:08;9.93;;;4.17;;
15363;SDS011;7781;49.690;6.472;2022-11-20T09:34:37;4.60;;;3.10;;
15363;SDS011;7781;49.690;6.472;2022-11-20T09:37:08;3.40;;;3.10;;
15363;SDS011;7781;49.690;6.472;2022-11-20T09:39:38;6.40;;;3.20;;
15363;SDS011;7781;49.690;6.472;2022-11-20T09:42:14;5.90;;;3.13;;
15363;SDS011;7781;49.690;6.472;2022-11-20T09:44:59;8.13;;;3.57;;
15363;SDS011;7781;49.690;6.472;2022-11-20T09:47:44;8.10;;;3.63;;
15363;SDS011;7781;49.690;6.472;2022-11-20T09:50:27;4.57;;;2.90;;
15363;SDS011;7781;49.690;6.472;2022-11-20T09:53:04;3.50;;;2.73;;
15363;SDS011;7781;49.690;6.472;2022-11-20T09:55:42;4.70;;;2.60;;
15363;SDS011;7781;49.690;6.472;2022-11-20T09:58:14;9.87;;;3.30;;
15363;SDS011;7781;49.690;6.472;2022-11-20T10:00:49;6.50;;;3.03;;
15363;SDS011;7781;49.690;6.472;2022-11-20T10:03:25;4.50;;;3.10;;
15363;SDS011;7781;49.690;6.472;2022-11-20T10:06:04;13.43;;;3.27;;
15363;SDS011;7781;49.690;6.472;2022-11-20T10:08:39;5.33;;;2.60;;
15363;SDS011;7781;49.690;6.472;2022-11-20T10:11:13;2.20;;;2.00;;
15363;SDS011;7781;49.690;6.472;2022-11-20T10:13:51;2.83;;;2.17;;
15363;SDS011;7781;49.690;6.472;2022-11-20T10:16:35;5.90;;;1.97;;
15363;SDS011;7781;49.690;6.472;2022-11-20T10:19:13;11.93;;;2.17;;
15363;SDS011;7781;49.690;6.472;2022-11-20T10:21:56;8.60;;;2.40;;
15363;SDS011;7781;49.690;6.472;2022-11-20T10:24:38;3.00;;;1.90;;
15363;SDS011;7781;49.690;6.472;2022-11-20T10:30:24;4.37;;;2.50;;
15363;SDS011;7781;49.690;6.472;2022-11-20T10:32:58;6.47;;;2.87;;
15363;SDS011;7781;49.690;6.472;2022-11-20T10:35:33;6.90;;;2.87;;
15363;SDS011;7781;49.690;6.472;2022-11-20T10:38:08;6.30;;;2.80;;
15363;SDS011;7781;49.690;6.472;2022-11-20T10:40:41;4.77;;;3.20;;
15363;SDS011;7781;49.690;6.472;2022-11-20T10:43:17;6.67;;;2.60;;
15363;SDS011;7781;49.690;6.472;2022-11-20T10:45:51;8.23;;;2.90;;
15363;SDS011;7781;49.690;6.472;2022-11-20T10:48:25;12.57;;;4.67;;
15363;SDS011;7781;49.690;6.472;2022-11-20T10:51:05;4.70;;;2.63;;
15363;SDS011;7781;49.690;6.472;2022-11-20T10:53:44;3.17;;;1.77;;
15363;SDS011;7781;49.690;6.472;2022-11-20T10:56:22;4.63;;;2.17;;
15363;SDS011;7781;49.690;6.472;2022-11-20T10:59:10;4.43;;;2.10;;
15363;SDS011;7781;49.690;6.472;2022-11-20T11:01:51;4.90;;;2.07;;
15363;SDS011;7781;49.690;6.472;2022-11-20T11:04:28;2.73;;;1.90;;
15363;SDS011;7781;49.690;6.472;2022-11-20T11:07:06;5.43;;;1.93;;
15363;SDS011;7781;49.690;6.472;2022-11-20T11:09:39;2.60;;;1.50;;
15363;SDS011;7781;49.690;6.472;2022-11-20T11:12:12;7.10;;;2.20;;
15363;SDS011;7781;49.690;6.472;2022-11-20T11:14:48;6.93;;;2.17;;
15363;SDS011;7781;49.690;6.472;2022-11-20T11:17:26;5.70;;;1.70;;
15363;SDS011;7781;49.690;6.472;2022-11-20T11:20:03;4.53;;;2.10;;
15363;SDS011;7781;49.690;6.472;2022-11-20T11:22:42;6.97;;;2.10;;
15363;SDS011;7781;49.690;6.472;2022-11-20T11:25:20;6.33;;;1.97;;
15363;SDS011;7781;49.690;6.472;2022-11-20T11:27:52;6.17;;;1.77;;
15363;SDS011;7781;49.690;6.472;2022-11-20T11:30:24;5.30;;;1.73;;
15363;SDS011;7781;49.690;6.472;2022-11-20T11:33:04;6.50;;;2.33;;
15363;SDS011;7781;49.690;6.472;2022-11-20T11:35:39;6.10;;;2.40;;
15363;SDS011;7781;49.690;6.472;2022-11-20T11:38:19;6.93;;;2.17;;
15363;SDS011;7781;49.690;6.472;2022-11-20T11:40:52;2.90;;;1.90;;
15363;SDS011;7781;49.690;6.472;2022-11-20T11:43:24;1.87;;;1.37;;
15363;SDS011;7781;49.690;6.472;2022-11-20T11:46:26;6.77;;;2.20;;
15363;SDS011;7781;49.690;6.472;2022-11-20T11:48:59;2.33;;;1.57;;
15363;SDS011;7781;49.690;6.472;2022-11-20T11:51:32;5.50;;;1.97;;
15363;SDS011;7781;49.690;6.472;2022-11-20T11:54:10;2.80;;;1.87;;
15363;SDS011;7781;49.690;6.472;2022-11-20T11:56:46;3.20;;;1.43;;
15363;SDS011;7781;49.690;6.472;2022-11-20T11:59:18;1.90;;;1.30;;
15363;SDS011;7781;49.690;6.472;2022-11-20T12:01:56;4.83;;;1.90;;
15363;SDS011;7781;49.690;6.472;2022-11-20T12:04:37;6.30;;;2.23;;
15363;SDS011;7781;49.690;6.472;2022-11-20T12:07:13;2.90;;;2.13;;
15363;SDS011;7781;49.690;6.472;2022-11-20T12:10:14;2.00;;;1.33;;
15363;SDS011;7781;49.690;6.472;2022-11-20T12:12:49;5.30;;;1.80;;
15363;SDS011;7781;49.690;6.472;2022-11-20T12:15:31;7.23;;;1.67;;
15363;SDS011;7781;49.690;6.472;2022-11-20T12:18:06;3.23;;;1.57;;
15363;SDS011;7781;49.690;6.472;2022-11-20T12:20:45;3.10;;;1.30;;
15363;SDS011;7781;49.690;6.472;2022-11-20T12:23:24;4.73;;;1.30;;
15363;SDS011;7781;49.690;6.472;2022-11-20T12:26:00;1.80;;;1.33;;
15363;SDS011;7781;49.690;6.472;2022-11-20T12:28:41;5.63;;;1.43;;
15363;SDS011;7781;49.690;6.472;2022-11-20T12:31:23;3.23;;;1.43;;
15363;SDS011;7781;49.690;6.472;2022-11-20T12:34:15;2.80;;;1.70;;
15363;SDS011;7781;49.690;6.472;2022-11-20T12:36:54;7.30;;;1.63;;
15363;SDS011;7781;49.690;6.472;2022-11-20T12:39:35;5.20;;;1.43;;
15363;SDS011;7781;49.690;6.472;2022-11-20T12:45:24;2.60;;;1.40;;
15363;SDS011;7781;49.690;6.472;2022-11-20T12:48:09;1.30;;;1.27;;
15363;SDS011;7781;49.690;6.472;2022-11-20T12:50:56;3.27;;;1.33;;
15363;SDS011;7781;49.690;6.472;2022-11-20T12:53:43;3.20;;;1.30;;
15363;SDS011;7781;49.690;6.472;2022-11-20T12:56:24;1.70;;;1.20;;
15363;SDS011;7781;49.690;6.472;2022-11-20T12:59:04;5.07;;;1.00;;
15363;SDS011;7781;49.690;6.472;2022-11-20T13:01:52;4.50;;;1.30;;
15363;SDS011;7781;49.690;6.472;2022-11-20T13:04:32;8.27;;;1.80;;
15363;SDS011;7781;49.690;6.472;2022-11-20T13:07:14;3.00;;;2.10;;
15363;SDS011;7781;49.690;6.472;2022-11-20T13:09:45;7.00;;;1.70;;
15363;SDS011;7781;49.690;6.472;2022-11-20T13:12:17;3.00;;;1.23;;
15363;SDS011;7781;49.690;6.472;2022-11-20T13:14:56;7.50;;;1.47;;
15363;SDS011;7781;49.690;6.472;2022-11-20T13:17:30;2.73;;;1.00;;
15363;SDS011;7781;49.690;6.472;2022-11-20T13:20:06;5.20;;;1.73;;
15363;SDS011;7781;49.690;6.472;2022-11-20T13:22:44;6.03;;;1.40;;
15363;SDS011;7781;49.690;6.472;2022-11-20T13:25:23;1.40;;;1.13;;
15363;SDS011;7781;49.690;6.472;2022-11-20T13:27:54;8.37;;;1.60;;
15363;SDS011;7781;49.690;6.472;2022-11-20T13:30:24;2.53;;;1.00;;
15363;SDS011;7781;49.690;6.472;2022-11-20T13:32:56;3.70;;;1.07;;
15363;SDS011;7781;49.690;6.472;2022-11-20T13:35:28;6.27;;;1.60;;
15363;SDS011;7781;49.690;6.472;2022-11-20T13:38:02;3.70;;;1.13;;
15363;SDS011;7781;49.690;6.472;2022-11-20T13:40:33;2.20;;;1.00;;
15363;SDS011;7781;49.690;6.472;2022-11-20T13:43:07;4.07;;;1.30;;
15363;SDS011;7781;49.690;6.472;2022-11-20T13:45:53;2.90;;;1.20;;
15363;SDS011;7781;49.690;6.472;2022-11-20T13:48:23;3.53;;;1.30;;
15363;SDS011;7781;49.690;6.472;2022-11-20T13:50:55;1.00;;;0.80;;
15363;SDS011;7781;49.690;6.472;2022-11-20T13:53:41;5.70;;;1.20;;
15363;SDS011;7781;49.690;6.472;2022-11-20T13:56:34;2.30;;;1.20;;
15363;SDS011;7781;49.690;6.472;2022-11-20T13:59:13;2.07;;;1.10;;
15363;SDS011;7781;49.690;6.472;2022-11-20T14:01:48;2.10;;;1.50;;
15363;SDS011;7781;49.690;6.472;2022-11-20T14:04:18;2.77;;;1.33;;
15363;SDS011;7781;49.690;6.472;2022-11-20T14:06:53;1.10;;;0.77;;
15363;SDS011;7781;49.690;6.472;2022-11-20T14:09:27;2.60;;;1.20;;
15363;SDS011;7781;49.690;6.472;2022-11-20T14:11:58;8.43;;;1.47;;
15363;SDS011;7781;49.690;6.472;2022-11-20T14:14:27;3.27;;;1.13;;
15363;SDS011;7781;49.690;6.472;2022-11-20T14:17:04;2.73;;;1.10;;
15363;SDS011;7781;49.690;6.472;2022-11-20T14:19:34;2.53;;;1.30;;
15363;SDS011;7781;49.690;6.472;2022-11-20T14:22:09;5.90;;;3.23;;
15363;SDS011;7781;49.690;6.472;2022-11-20T14:24:48;2.80;;;1.80;;
15363;SDS011;7781;49.690;6.472;2022-11-20T14:27:18;3.23;;;2.13;;
15363;SDS011;7781;49.690;6.472;2022-11-20T14:29:49;4.63;;;2.37;;
15363;SDS011;7781;49.690;6.472;2022-11-20T14:32:19;4.23;;;1.40;;
15363;SDS011;7781;49.690;6.472;2022-11-20T14:34:51;4.07;;;1.20;;
15363;SDS011;7781;49.690;6.472;2022-11-20T14:37:21;3.60;;;1.50;;
15363;SDS011;7781;49.690;6.472;2022-11-20T14:39:55;2.20;;;0.93;;
15363;SDS011;7781;49.690;6.472;2022-11-20T14:42:27;4.17;;;1.10;;
15363;SDS011;7781;49.690;6.472;2022-11-20T14:44:57;6.50;;;1.40;;
15363;SDS011;7781;49.690;6.472;2022-11-20T14:47:30;6.53;;;1.23;;
15363;SDS011;7781;49.690;6.472;2022-11-20T14:49:59;3.50;;;0.97;;
15363;SDS011;7781;49.690;6.472;2022-11-20T14:52:35;4.40;;;1.10;;
15363;SDS011;7781;49.690;6.472;2022-11-20T14:55:07;1.10;;;1.00;;
15363;SDS011;7781;49.690;6.472;2022-11-20T14:57:41;2.60;;;1.20;;
15363;SDS011;7781;49.690;6.472;2022-11-20T15:00:18;3.33;;;1.00;;
15363;SDS011;7781;49.690;6.472;2022-11-20T15:02:48;1.47;;;1.10;;
15363;SDS011;7781;49.690;6.472;2022-11-20T15:05:19;1.93;;;1.00;;
15363;SDS011;7781;49.690;6.472;2022-11-20T15:07:49;2.23;;;2.03;;
15363;SDS011;7781;49.690;6.472;2022-11-20T15:10:23;2.23;;;1.30;;
15363;SDS011;7781;49.690;6.472;2022-11-20T15:12:53;3.57;;;1.20;;
15363;SDS011;7781;49.690;6.472;2022-11-20T15:15:25;3.37;;;1.10;;
15363;SDS011;7781;49.690;6.472;2022-11-20T15:17:59;2.40;;;1.10;;
15363;SDS011;7781;49.690;6.472;2022-11-20T15:20:30;2.43;;;1.37;;
15363;SDS011;7781;49.690;6.472;2022-11-20T15:23:01;2.05;;;1.40;;
15363;SDS011;7781;49.690;6.472;2022-11-20T15:25:30;2.90;;;1.10;;
15363;SDS011;7781;49.690;6.472;2022-11-20T15:27:59;2.13;;;1.23;;
15363;SDS011;7781;49.690;6.472;2022-11-20T15:30:27;4.10;;;1.10;;
15363;SDS011;7781;49.690;6.472;2022-11-20T15:32:58;1.20;;;1.00;;
15363;SDS011;7781;49.690;6.472;2022-11-20T15:35:28;4.77;;;1.10;;
15363;SDS011;7781;49.690;6.472;2022-11-20T15:37:57;8.63;;;0.93;;